Time;durP1;ratioP1;P1;durP2;ratioP2;P2;SDS_P1;SDS_P2;PMS_P1;PMS_P2;Temp;Humidity;BMP_temperature;BMP_pressure;BME280_temperature;BME280_humidity;BME280_pressure;Samples;Min_cycle;Max_cycle;Signal;HPM_P1;HPM_P2
2022/12/02 00:00:48;;;;;;;17.33;9.82;;;;;;;;;;4993128;28;20484;-87
2022/12/02 00:03:20;;;;;;;18.45;10.32;;;;;;;;;;4991974;28;20038;-89
2022/12/02 00:05:49;;;;;;;19.15;10.10;;;;;;;;;;4992937;28;20070;-88
2022/12/02 00:08:21;;;;;;;20.08;10.95;;;;;;;;;;4992882;28;20078;-87
2022/12/02 00:10:50;;;;;;;18.52;10.32;;;;;;;;;;4991550;28;20408;-88
2022/12/02 00:13:28;;;;;;;19.45;10.02;;;;;;;;;;4992841;28;20096;-87
2022/12/02 00:16:04;;;;;;;17.80;10.95;;;;;;;;;;4992993;28;20487;-88
2022/12/02 00:18:31;;;;;;;21.00;9.88;;;;;;;;;;4992726;28;20129;-86
2022/12/02 00:20:59;;;;;;;19.15;10.55;;;;;;;;;;4992547;28;20038;-87
2022/12/02 00:23:26;;;;;;;19.10;10.95;;;;;;;;;;4992393;28;20149;-89
2022/12/02 00:25:54;;;;;;;19.33;9.90;;;;;;;;;;4992726;28;20996;-88
2022/12/02 00:28:21;;;;;;;18.15;10.50;;;;;;;;;;4992710;28;20052;-89
2022/12/02 00:30:49;;;;;;;19.35;10.73;;;;;;;;;;4991376;28;20070;-88
2022/12/02 00:33:17;;;;;;;20.02;11.35;;;;;;;;;;4992577;28;20057;-88
2022/12/02 00:35:45;;;;;;;20.67;10.95;;;;;;;;;;4992654;28;20430;-89
2022/12/02 00:38:13;;;;;;;20.55;11.18;;;;;;;;;;4990257;28;20046;-89
2022/12/02 00:40:40;;;;;;;23.38;12.73;;;;;;;;;;4991462;28;20434;-89
2022/12/02 00:48:40;;;;;;;21.35;11.68;;;;;;;;;;4993800;28;20080;-87
2022/12/02 00:51:07;;;;;;;20.23;11.60;;;;;;;;;;4993369;28;20042;-87
2022/12/02 00:53:35;;;;;;;21.02;11.95;;;;;;;;;;4992268;28;20491;-88
2022/12/02 00:56:02;;;;;;;22.27;11.82;;;;;;;;;;4990929;28;20046;-86
2022/12/02 00:58:30;;;;;;;22.77;12.50;;;;;;;;;;4994656;28;20038;-89
2022/12/02 01:00:57;;;;;;;21.83;11.35;;;;;;;;;;4991008;28;20038;-86
2022/12/02 01:03:25;;;;;;;22.65;12.20;;;;;;;;;;4990898;28;20460;-88
2022/12/02 01:05:52;;;;;;;18.92;11.45;;;;;;;;;;4992013;28;20495;-89
2022/12/02 01:08:24;;;;;;;20.65;11.93;;;;;;;;;;4990936;28;20061;-86
2022/12/02 01:10:51;;;;;;;23.23;12.50;;;;;;;;;;4990805;28;20046;-88
2022/12/02 01:13:19;;;;;;;25.85;12.57;;;;;;;;;;4992275;28;20046;-88
2022/12/02 01:15:46;;;;;;;25.45;12.13;;;;;;;;;;4991951;28;20035;-86
2022/12/02 01:18:14;;;;;;;21.83;11.57;;;;;;;;;;4990643;28;20099;-87
2022/12/02 01:20:41;;;;;;;23.33;11.52;;;;;;;;;;4990935;28;20072;-88
2022/12/02 01:23:09;;;;;;;25.00;11.63;;;;;;;;;;4991865;28;20062;-88
2022/12/02 01:25:36;;;;;;;22.27;11.82;;;;;;;;;;4990515;28;20053;-85
2022/12/02 01:28:04;;;;;;;24.52;11.75;;;;;;;;;;4990426;28;20076;-87
2022/12/02 01:30:32;;;;;;;21.67;12.23;;;;;;;;;;4990496;28;20088;-86
2022/12/02 01:32:59;;;;;;;24.58;12.93;;;;;;;;;;4990724;28;20064;-86
2022/12/02 01:35:27;;;;;;;23.45;11.35;;;;;;;;;;4990590;28;20065;-87
2022/12/02 01:37:54;;;;;;;21.75;11.45;;;;;;;;;;4991719;28;20149;-85
2022/12/02 01:40:22;;;;;;;23.55;12.02;;;;;;;;;;4990566;28;20048;-88
2022/12/02 01:42:49;;;;;;;22.88;11.60;;;;;;;;;;4991647;28;20434;-86
2022/12/02 01:45:17;;;;;;;25.27;12.40;;;;;;;;;;4990441;28;20039;-88
2022/12/02 01:47:45;;;;;;;23.25;12.05;;;;;;;;;;4990475;28;20062;-85
2022/12/02 01:50:14;;;;;;;25.35;11.70;;;;;;;;;;4989871;28;20046;-86
2022/12/02 01:52:42;;;;;;;24.95;12.25;;;;;;;;;;4990166;28;20069;-89
2022/12/02 01:55:23;;;;;;;26.27;13.43;;;;;;;;;;4990276;28;20038;-87
2022/12/02 01:57:50;;;;;;;23.88;12.60;;;;;;;;;;4991420;28;20496;-87
2022/12/02 02:00:19;;;;;;;22.67;12.32;;;;;;;;;;4989972;28;20042;-86
2022/12/02 02:02:46;;;;;;;22.25;10.40;;;;;;;;;;4989951;28;20450;-88
2022/12/02 02:05:33;;;;;;;21.98;11.80;;;;;;;;;;4990503;28;20051;-87
2022/12/02 02:08:05;;;;;;;20.65;10.52;;;;;;;;;;4990161;28;20072;-88
2022/12/02 02:10:34;;;;;;;21.55;11.07;;;;;;;;;;4990414;28;20042;-85
2022/12/02 02:13:02;;;;;;;22.17;11.80;;;;;;;;;;4989958;28;20672;-86
2022/12/02 02:15:31;;;;;;;20.92;11.93;;;;;;;;;;4991342;28;20038;-86
2022/12/02 02:17:59;;;;;;;21.63;11.35;;;;;;;;;;4990150;28;20035;-87
2022/12/02 02:20:32;;;;;;;20.15;11.38;;;;;;;;;;4989906;28;20050;-87
2022/12/02 02:23:05;;;;;;;21.75;11.05;;;;;;;;;;4989805;28;20407;-88
2022/12/02 02:25:45;;;;;;;23.25;12.20;;;;;;;;;;4990376;28;20080;-87
2022/12/02 02:28:14;;;;;;;24.33;12.68;;;;;;;;;;4989798;28;20047;-86
2022/12/02 02:30:44;;;;;;;21.38;10.77;;;;;;;;;;4990018;28;20050;-86
2022/12/02 02:33:13;;;;;;;22.38;11.55;;;;;;;;;;4989668;28;20054;-87
2022/12/02 02:35:41;;;;;;;22.65;11.00;;;;;;;;;;4990064;28;20044;-86
2022/12/02 02:38:10;;;;;;;21.77;11.90;;;;;;;;;;4990995;28;20073;-87
2022/12/02 02:40:38;;;;;;;25.23;12.15;;;;;;;;;;4990723;28;20045;-89
2022/12/02 02:43:07;;;;;;;22.45;12.35;;;;;;;;;;4989476;28;20039;-89
2022/12/02 02:45:36;;;;;;;23.10;11.27;;;;;;;;;;4973677;28;20074;-89
2022/12/02 02:48:06;;;;;;;22.48;11.35;;;;;;;;;;4989326;28;20043;-88
2022/12/02 02:50:36;;;;;;;23.70;11.45;;;;;;;;;;4989371;28;20050;-86
2022/12/02 02:53:04;;;;;;;23.17;12.07;;;;;;;;;;4989549;28;20042;-89
2022/12/02 02:55:33;;;;;;;23.63;10.85;;;;;;;;;;4989363;28;20411;-87
2022/12/02 02:58:14;;;;;;;23.58;11.50;;;;;;;;;;4973398;28;20049;-88
2022/12/02 03:00:46;;;;;;;23.42;12.23;;;;;;;;;;4988447;28;20050;-88
2022/12/02 03:03:16;;;;;;;22.38;12.05;;;;;;;;;;4989224;28;20592;-88
2022/12/02 03:05:45;;;;;;;23.00;11.13;;;;;;;;;;4989352;28;20042;-89
2022/12/02 03:08:13;;;;;;;21.80;11.10;;;;;;;;;;4989240;28;20049;-87
2022/12/02 03:10:41;;;;;;;23.35;11.60;;;;;;;;;;4973181;28;20407;-88
2022/12/02 03:13:09;;;;;;;22.40;10.73;;;;;;;;;;4989532;28;20125;-87
2022/12/02 03:15:36;;;;;;;21.73;10.70;;;;;;;;;;4990295;28;20064;-87
2022/12/02 03:18:04;;;;;;;23.08;12.30;;;;;;;;;;4989256;28;20054;-89
2022/12/02 03:20:31;;;;;;;21.88;11.40;;;;;;;;;;4991343;28;20519;-88
2022/12/02 03:22:59;;;;;;;23.65;12.05;;;;;;;;;;4990101;28;20111;-86
2022/12/02 03:25:27;;;;;;;17.25;9.30;;;;;;;;;;4990279;28;20047;-87
2022/12/02 03:27:55;;;;;;;21.65;11.63;;;;;;;;;;4990426;28;20039;-85
2022/12/02 03:30:23;;;;;;;21.75;11.07;;;;;;;;;;4990342;28;20103;-87
2022/12/02 03:32:50;;;;;;;24.35;12.35;;;;;;;;;;4990149;28;20045;-87
2022/12/02 03:35:18;;;;;;;26.30;12.95;;;;;;;;;;4989999;28;20119;-86
2022/12/02 03:37:45;;;;;;;21.10;11.18;;;;;;;;;;4990128;28;20515;-87
2022/12/02 03:40:13;;;;;;;23.80;12.05;;;;;;;;;;4989919;28;20085;-88
2022/12/02 03:42:40;;;;;;;23.65;11.98;;;;;;;;;;4989977;28;20481;-87
2022/12/02 03:45:08;;;;;;;25.80;12.18;;;;;;;;;;4989646;28;20565;-86
2022/12/02 03:47:36;;;;;;;23.90;12.13;;;;;;;;;;4989761;28;20117;-87
2022/12/02 03:50:04;;;;;;;22.35;11.55;;;;;;;;;;4989788;28;20088;-86
2022/12/02 03:52:31;;;;;;;22.83;12.25;;;;;;;;;;4989700;28;20034;-85
2022/12/02 03:54:59;;;;;;;29.40;12.68;;;;;;;;;;4988649;28;20042;-87
2022/12/02 03:57:27;;;;;;;25.42;11.80;;;;;;;;;;4989618;28;20092;-84
2022/12/02 03:59:55;;;;;;;22.60;11.90;;;;;;;;;;4989650;28;20039;-87
2022/12/02 04:02:23;;;;;;;22.00;11.48;;;;;;;;;;4989657;28;20051;-86
2022/12/02 04:04:50;;;;;;;22.63;11.57;;;;;;;;;;4989669;28;20064;-85
2022/12/02 04:07:18;;;;;;;20.23;10.02;;;;;;;;;;4989539;28;20047;-85
2022/12/02 04:09:45;;;;;;;20.50;10.00;;;;;;;;;;4989486;28;20060;-85
2022/12/02 04:12:13;;;;;;;22.45;11.85;;;;;;;;;;4990177;28;20122;-86
2022/12/02 04:14:40;;;;;;;25.88;11.32;;;;;;;;;;4993011;28;20053;-85
2022/12/02 04:17:08;;;;;;;22.35;10.57;;;;;;;;;;4992758;28;20049;-85
2022/12/02 04:19:35;;;;;;;25.10;11.63;;;;;;;;;;4992907;28;20519;-87
2022/12/02 04:22:03;;;;;;;25.58;11.95;;;;;;;;;;4992542;28;20054;-86
2022/12/02 04:24:30;;;;;;;19.67;11.05;;;;;;;;;;4992490;28;20077;-86
2022/12/02 04:26:57;;;;;;;20.38;11.88;;;;;;;;;;4992580;28;20050;-86
2022/12/02 04:29:25;;;;;;;24.15;11.57;;;;;;;;;;4992455;28;20042;-85
2022/12/02 04:31:52;;;;;;;23.75;12.00;;;;;;;;;;4992603;28;20480;-87
2022/12/02 04:34:20;;;;;;;26.90;11.50;;;;;;;;;;4992532;28;20038;-85
2022/12/02 04:36:47;;;;;;;22.27;11.75;;;;;;;;;;4992645;28;20050;-86
2022/12/02 04:39:15;;;;;;;24.38;11.48;;;;;;;;;;4992484;28;20042;-86
2022/12/02 04:41:42;;;;;;;24.45;11.88;;;;;;;;;;4992357;28;20041;-86
2022/12/02 04:44:10;;;;;;;26.00;12.65;;;;;;;;;;4992384;28;20070;-86
2022/12/02 04:46:44;;;;;;;25.50;12.85;;;;;;;;;;4992165;28;20038;-84
2022/12/02 04:49:11;;;;;;;21.50;10.48;;;;;;;;;;4992356;28;20544;-83
2022/12/02 04:51:39;;;;;;;24.00;12.23;;;;;;;;;;4992296;28;20047;-83
2022/12/02 04:54:06;;;;;;;29.10;11.35;;;;;;;;;;4991878;28;20125;-82
2022/12/02 04:56:34;;;;;;;23.02;12.07;;;;;;;;;;4992225;28;20137;-81
2022/12/02 04:59:01;;;;;;;23.88;12.23;;;;;;;;;;4992400;28;20047;-82
2022/12/02 05:01:29;;;;;;;23.65;11.90;;;;;;;;;;4990763;28;20397;-81
2022/12/02 05:03:56;;;;;;;25.95;12.73;;;;;;;;;;4992064;28;20586;-82
2022/12/02 05:06:23;;;;;;;26.67;12.63;;;;;;;;;;4992508;28;20300;-80
2022/12/02 05:08:51;;;;;;;24.90;12.00;;;;;;;;;;4992130;28;20593;-80
2022/12/02 05:11:19;;;;;;;23.58;12.13;;;;;;;;;;4991969;28;20043;-83
2022/12/02 05:13:46;;;;;;;25.05;11.98;;;;;;;;;;4991981;28;20068;-82
2022/12/02 05:16:13;;;;;;;26.85;13.30;;;;;;;;;;4990605;28;20053;-80
2022/12/02 05:18:41;;;;;;;27.83;13.60;;;;;;;;;;4991928;28;20491;-81
2022/12/02 05:21:08;;;;;;;24.55;13.13;;;;;;;;;;4991932;28;20042;-81
2022/12/02 05:23:36;;;;;;;27.88;12.82;;;;;;;;;;4991062;28;20046;-82
2022/12/02 05:26:03;;;;;;;25.45;12.77;;;;;;;;;;4992069;28;20465;-84
2022/12/02 05:28:31;;;;;;;25.65;12.15;;;;;;;;;;4992879;28;20441;-83
2022/12/02 05:30:58;;;;;;;23.73;12.52;;;;;;;;;;4993014;28;20046;-81
2022/12/02 05:33:26;;;;;;;23.27;12.60;;;;;;;;;;4992142;28;20096;-80
2022/12/02 05:35:53;;;;;;;27.88;14.23;;;;;;;;;;4991612;28;20119;-81
2022/12/02 05:38:21;;;;;;;32.88;15.00;;;;;;;;;;4991471;28;20046;-83
2022/12/02 05:40:48;;;;;;;25.00;12.93;;;;;;;;;;4991408;28;20046;-83
2022/12/02 05:43:18;;;;;;;22.27;12.60;;;;;;;;;;4991643;28;20092;-84
2022/12/02 05:45:45;;;;;;;27.13;12.43;;;;;;;;;;4991744;28;20096;-82
2022/12/02 05:48:14;;;;;;;26.58;12.23;;;;;;;;;;4991468;28;20049;-83
2022/12/02 05:50:42;;;;;;;23.80;13.00;;;;;;;;;;5086773;28;20044;-81
2022/12/02 05:53:22;;;;;;;25.23;13.45;;;;;;;;;;5093471;28;20493;-82
2022/12/02 05:55:53;;;;;;;24.10;13.27;;;;;;;;;;5094333;28;20043;-81
2022/12/02 05:58:21;;;;;;;22.90;12.63;;;;;;;;;;5093734;28;20051;-82
2022/12/02 06:01:12;;;;;;;27.05;14.23;;;;;;;;;;5093637;28;20093;-82
2022/12/02 06:03:39;;;;;;;28.48;13.98;;;;;;;;;;5092177;28;20036;-82
2022/12/02 06:06:09;;;;;;;24.10;13.48;;;;;;;;;;5093746;28;20089;-80
2022/12/02 06:08:37;;;;;;;25.88;12.48;;;;;;;;;;5093432;28;20470;-80
2022/12/02 06:11:19;;;;;;;23.17;12.40;;;;;;;;;;5093756;28;20044;-80
2022/12/02 06:13:47;;;;;;;24.88;14.38;;;;;;;;;;5093531;28;20482;-81
2022/12/02 06:16:21;;;;;;;26.77;14.45;;;;;;;;;;5093552;28;20044;-81
2022/12/02 06:18:48;;;;;;;33.03;14.35;;;;;;;;;;5093363;28;20535;-80
2022/12/02 06:21:17;;;;;;;24.67;12.75;;;;;;;;;;5092097;28;20043;-80
2022/12/02 06:23:55;;;;;;;31.98;16.00;;;;;;;;;;5093272;28;20555;-80
2022/12/02 06:26:23;;;;;;;27.88;14.68;;;;;;;;;;5093354;28;20101;-80
2022/12/02 06:28:52;;;;;;;24.58;12.38;;;;;;;;;;5093193;28;20115;-80
2022/12/02 06:31:21;;;;;;;25.98;14.00;;;;;;;;;;5092218;28;20050;-80
2022/12/02 06:33:49;;;;;;;25.58;13.38;;;;;;;;;;5093016;28;20064;-80
2022/12/02 06:36:29;;;;;;;28.13;13.15;;;;;;;;;;5091885;28;20417;-80
2022/12/02 06:38:58;;;;;;;27.77;13.57;;;;;;;;;;5093142;28;20119;-80
2022/12/02 06:41:27;;;;;;;30.00;15.15;;;;;;;;;;5093396;28;20036;-80
2022/12/02 06:46:44;;;;;;;30.90;15.57;;;;;;;;;;5092903;28;20042;-80
2022/12/02 06:49:14;;;;;;;29.95;15.70;;;;;;;;;;5093203;28;20509;-80
2022/12/02 06:51:41;;;;;;;26.92;14.20;;;;;;;;;;5093225;28;20059;-80
2022/12/02 06:54:14;;;;;;;27.75;13.52;;;;;;;;;;5092830;28;20068;-80
2022/12/02 06:56:42;;;;;;;31.58;13.40;;;;;;;;;;5092903;28;20099;-80
2022/12/02 06:59:11;;;;;;;30.67;15.18;;;;;;;;;;5093295;28;20090;-81
2022/12/02 07:01:40;;;;;;;24.83;13.40;;;;;;;;;;5092969;28;20036;-80
2022/12/02 07:04:08;;;;;;;31.65;15.30;;;;;;;;;;5092935;28;20111;-80
2022/12/02 07:06:38;;;;;;;39.80;17.13;;;;;;;;;;5092695;28;20040;-80
2022/12/02 07:09:26;;;;;;;39.67;17.13;;;;;;;;;;5092669;28;20044;-80
2022/12/02 07:11:54;;;;;;;46.33;18.08;;;;;;;;;;5079588;28;20493;-81
2022/12/02 07:14:40;;;;;;;61.72;22.40;;;;;;;;;;5092880;28;20525;-80
2022/12/02 07:17:23;;;;;;;53.55;19.52;;;;;;;;;;5092834;28;20051;-80
2022/12/02 07:19:56;;;;;;;43.65;17.45;;;;;;;;;;5092666;28;20040;-80
2022/12/02 07:22:28;;;;;;;28.60;15.25;;;;;;;;;;5092428;28;20044;-81
2022/12/02 07:25:04;;;;;;;65.57;21.30;;;;;;;;;;5092364;28;20051;-81
2022/12/02 07:27:34;;;;;;;91.43;27.98;;;;;;;;;;5092397;28;20036;-80
2022/12/02 07:30:02;;;;;;;118.75;30.40;;;;;;;;;;5092228;28;20040;-80
2022/12/02 07:32:29;;;;;;;91.25;26.50;;;;;;;;;;5092338;28;20185;-81
2022/12/02 07:34:57;;;;;;;37.40;17.73;;;;;;;;;;5092160;28;20040;-80
2022/12/02 07:37:24;;;;;;;115.38;27.13;;;;;;;;;;5092293;28;20032;-80
2022/12/02 07:39:52;;;;;;;72.22;22.48;;;;;;;;;;5092494;28;20044;-80
2022/12/02 07:42:19;;;;;;;53.28;20.88;;;;;;;;;;5092198;28;20032;-80
2022/12/02 07:44:47;;;;;;;43.13;18.40;;;;;;;;;;5092255;28;20040;-80
2022/12/02 07:47:14;;;;;;;77.97;23.15;;;;;;;;;;5093097;28;20059;-82
2022/12/02 07:49:41;;;;;;;53.30;21.10;;;;;;;;;;5095950;28;20090;-81
2022/12/02 07:52:09;;;;;;;38.03;16.58;;;;;;;;;;5096026;28;20481;-81
2022/12/02 07:54:36;;;;;;;47.20;19.52;;;;;;;;;;5096150;28;20067;-81
2022/12/02 07:57:04;;;;;;;38.22;17.73;;;;;;;;;;5096018;28;20481;-80
2022/12/02 07:59:31;;;;;;;37.42;20.02;;;;;;;;;;5095783;28;20036;-80
2022/12/02 08:01:59;;;;;;;36.85;17.88;;;;;;;;;;5095784;28;20071;-81
2022/12/02 08:04:26;;;;;;;32.25;16.15;;;;;;;;;;5095798;28;20043;-81
2022/12/02 08:06:54;;;;;;;32.15;16.67;;;;;;;;;;5096014;28;20048;-81
2022/12/02 08:09:22;;;;;;;25.60;13.00;;;;;;;;;;5095668;28;20047;-80
2022/12/02 08:11:49;;;;;;;29.92;14.38;;;;;;;;;;5095559;28;20036;-81
2022/12/02 08:14:16;;;;;;;31.85;15.75;;;;;;;;;;5095568;28;20050;-81
2022/12/02 08:16:44;;;;;;;30.38;15.70;;;;;;;;;;5095611;28;20431;-82
2022/12/02 08:19:12;;;;;;;33.08;15.35;;;;;;;;;;5096768;28;20051;-81
2022/12/02 08:21:40;;;;;;;29.08;14.05;;;;;;;;;;5094081;28;20039;-81
2022/12/02 08:24:08;;;;;;;29.73;14.27;;;;;;;;;;5095171;28;20452;-81
2022/12/02 08:26:36;;;;;;;61.58;22.95;;;;;;;;;;5094204;28;20036;-82
2022/12/02 08:29:03;;;;;;;62.58;21.27;;;;;;;;;;5095222;28;20559;-80
2022/12/02 08:31:31;;;;;;;32.85;15.77;;;;;;;;;;5095410;28;20051;-81
2022/12/02 08:33:58;;;;;;;51.78;22.40;;;;;;;;;;5094988;28;20040;-81
2022/12/02 08:36:33;;;;;;;38.78;17.90;;;;;;;;;;5095054;28;20131;-80
2022/12/02 08:39:04;;;;;;;31.25;16.33;;;;;;;;;;5095041;28;20040;-81
2022/12/02 08:41:35;;;;;;;34.72;19.45;;;;;;;;;;5094904;28;20043;-81
2022/12/02 08:44:04;;;;;;;38.70;16.08;;;;;;;;;;5095029;28;20106;-81
2022/12/02 08:46:31;;;;;;;26.17;15.27;;;;;;;;;;5095187;28;20101;-81
2022/12/02 08:48:59;;;;;;;33.47;16.38;;;;;;;;;;5093757;28;20036;-81
2022/12/02 08:51:27;;;;;;;26.08;15.18;;;;;;;;;;5094704;28;20085;-81
2022/12/02 08:53:55;;;;;;;31.92;16.92;;;;;;;;;;5094754;28;20068;-79
2022/12/02 08:56:22;;;;;;;30.48;15.70;;;;;;;;;;5095000;28;20047;-81
2022/12/02 08:58:49;;;;;;;30.10;15.10;;;;;;;;;;5093599;28;20043;-81
2022/12/02 09:01:17;;;;;;;29.02;14.85;;;;;;;;;;5094790;28;20040;-81
2022/12/02 09:03:45;;;;;;;24.50;13.15;;;;;;;;;;5094719;28;20040;-81
2022/12/02 09:06:12;;;;;;;29.65;17.55;;;;;;;;;;5094715;28;20460;-80
2022/12/02 09:08:39;;;;;;;33.40;19.60;;;;;;;;;;5094637;28;20452;-80
2022/12/02 09:11:07;;;;;;;36.03;19.67;;;;;;;;;;5096319;28;20063;-80
2022/12/02 09:13:35;;;;;;;32.75;17.08;;;;;;;;;;5094638;28;20044;-79
2022/12/02 09:16:02;;;;;;;26.67;15.25;;;;;;;;;;5094500;28;20043;-80
2022/12/02 09:18:30;;;;;;;29.58;15.98;;;;;;;;;;5094516;28;20450;-80
2022/12/02 09:20:57;;;;;;;24.23;13.38;;;;;;;;;;5094450;28;20052;-80
2022/12/02 09:23:25;;;;;;;26.48;13.73;;;;;;;;;;5094331;28;20052;-80
2022/12/02 09:25:52;;;;;;;26.17;12.95;;;;;;;;;;5094459;28;20501;-79
2022/12/02 09:28:21;;;;;;;23.67;12.98;;;;;;;;;;5094257;28;20044;-80
2022/12/02 09:30:48;;;;;;;24.30;13.48;;;;;;;;;;5094203;28;20389;-80
2022/12/02 09:33:16;;;;;;;28.33;12.90;;;;;;;;;;5093961;28;20060;-80
2022/12/02 09:35:43;;;;;;;25.17;12.18;;;;;;;;;;5093950;28;20044;-80
2022/12/02 09:38:11;;;;;;;29.40;13.77;;;;;;;;;;5093916;28;20032;-81
2022/12/02 09:40:39;;;;;;;20.67;9.90;;;;;;;;;;5093895;28;20040;-80
2022/12/02 09:43:06;;;;;;;25.27;13.88;;;;;;;;;;5093947;28;20040;-80
2022/12/02 09:45:34;;;;;;;38.28;19.00;;;;;;;;;;5092472;28;20138;-80
2022/12/02 09:48:01;;;;;;;41.92;20.25;;;;;;;;;;5094097;28;20047;-80
2022/12/02 09:50:30;;;;;;;71.78;31.02;;;;;;;;;;5093612;28;20028;-81
2022/12/02 09:52:59;;;;;;;38.08;17.60;;;;;;;;;;5093722;28;20039;-81
2022/12/02 09:55:27;;;;;;;34.47;17.55;;;;;;;;;;5093614;28;20040;-80
2022/12/02 09:57:54;;;;;;;36.17;18.85;;;;;;;;;;5093514;28;20048;-80
2022/12/02 10:00:22;;;;;;;52.05;25.00;;;;;;;;;;5093686;28;20172;-80
2022/12/02 10:02:51;;;;;;;27.83;14.82;;;;;;;;;;5093768;28;20040;-80
2022/12/02 10:05:26;;;;;;;39.28;19.25;;;;;;;;;;5093285;28;20123;-80
2022/12/02 10:07:54;;;;;;;41.53;21.48;;;;;;;;;;5093225;28;20040;-80
2022/12/02 10:10:39;;;;;;;33.90;18.42;;;;;;;;;;5091980;28;20074;-80
2022/12/02 10:13:10;;;;;;;63.63;36.47;;;;;;;;;;5093257;28;20093;-80
2022/12/02 10:15:37;;;;;;;54.97;30.02;;;;;;;;;;5093159;28;20472;-80
2022/12/02 10:18:23;;;;;;;32.88;17.02;;;;;;;;;;5093293;28;20044;-79
2022/12/02 10:20:51;;;;;;;29.33;15.68;;;;;;;;;;5093158;28;20058;-80
2022/12/02 10:23:23;;;;;;;28.38;14.43;;;;;;;;;;5092980;28;20055;-81
2022/12/02 10:25:53;;;;;;;29.08;15.82;;;;;;;;;;5093100;28;20039;-80
2022/12/02 10:28:31;;;;;;;27.17;13.80;;;;;;;;;;5091761;28;20397;-81
2022/12/02 10:31:08;;;;;;;31.55;15.68;;;;;;;;;;5092861;28;20071;-80
2022/12/02 10:33:38;;;;;;;32.05;15.77;;;;;;;;;;5092981;28;20051;-80
2022/12/02 10:36:06;;;;;;;34.17;17.02;;;;;;;;;;5092962;28;20443;-82
2022/12/02 10:38:40;;;;;;;31.17;17.50;;;;;;;;;;5092860;28;20405;-81
2022/12/02 10:41:12;;;;;;;33.33;17.45;;;;;;;;;;5092706;28;20040;-82
2022/12/02 10:43:40;;;;;;;31.55;15.98;;;;;;;;;;5092841;28;20405;-81
2022/12/02 10:46:10;;;;;;;33.25;15.95;;;;;;;;;;5092810;28;20036;-82
2022/12/02 10:48:38;;;;;;;33.83;17.15;;;;;;;;;;5092718;28;20044;-80
2022/12/02 10:51:05;;;;;;;32.95;17.52;;;;;;;;;;5091420;28;20051;-81
2022/12/02 10:53:33;;;;;;;30.90;15.93;;;;;;;;;;5092740;28;20093;-81
2022/12/02 10:56:00;;;;;;;23.67;13.05;;;;;;;;;;5092506;28;20115;-80
2022/12/02 10:58:31;;;;;;;28.67;14.65;;;;;;;;;;5091228;28;20066;-81
2022/12/02 11:00:59;;;;;;;29.70;14.32;;;;;;;;;;5092612;28;20058;-81
2022/12/02 11:03:27;;;;;;;24.70;13.05;;;;;;;;;;5091660;28;20036;-81
2022/12/02 11:05:54;;;;;;;24.20;13.02;;;;;;;;;;5092813;28;20121;-81
2022/12/02 11:08:23;;;;;;;37.28;17.50;;;;;;;;;;5092213;28;20039;-81
2022/12/02 11:11:05;;;;;;;30.20;14.55;;;;;;;;;;5092544;28;20044;-81
2022/12/02 11:13:48;;;;;;;28.85;15.68;;;;;;;;;;5092521;28;20040;-80
2022/12/02 11:16:28;;;;;;;27.77;14.32;;;;;;;;;;5091131;28;20074;-81
2022/12/02 11:19:08;;;;;;;24.13;12.95;;;;;;;;;;5091250;28;20440;-81
2022/12/02 11:21:40;;;;;;;28.65;15.73;;;;;;;;;;5091308;28;20040;-80
2022/12/02 11:24:22;;;;;;;26.58;13.95;;;;;;;;;;5096344;28;20060;-81
2022/12/02 11:27:02;;;;;;;21.85;12.38;;;;;;;;;;5095183;28;20048;-79
2022/12/02 11:29:33;;;;;;;20.08;11.25;;;;;;;;;;5096442;28;20050;-80
2022/12/02 11:32:00;;;;;;;19.02;10.23;;;;;;;;;;5096253;28;20055;-80
2022/12/02 11:34:44;;;;;;;18.00;9.13;;;;;;;;;;5096418;28;20039;-80
2022/12/02 11:37:35;;;;;;;18.65;10.10;;;;;;;;;;5096216;28;20467;-80
2022/12/02 11:40:06;;;;;;;17.48;10.23;;;;;;;;;;5096247;28;20367;-80
2022/12/02 11:42:34;;;;;;;21.33;12.48;;;;;;;;;;5096262;28;20040;-80
2022/12/02 11:45:18;;;;;;;24.83;13.93;;;;;;;;;;5096245;28;20036;-80
2022/12/02 11:47:45;;;;;;;25.13;14.15;;;;;;;;;;5096190;28;20055;-80
2022/12/02 11:50:16;;;;;;;29.83;16.48;;;;;;;;;;5094640;28;20036;-80
2022/12/02 11:52:44;;;;;;;24.67;12.95;;;;;;;;;;5095956;28;20044;-79
2022/12/02 11:55:18;;;;;;;21.30;12.05;;;;;;;;;;5096022;28;20090;-80
2022/12/02 11:57:47;;;;;;;20.40;10.60;;;;;;;;;;5095913;28;20048;-80
2022/12/02 12:00:23;;;;;;;21.95;10.45;;;;;;;;;;5095816;28;20052;-80
2022/12/02 12:02:50;;;;;;;;;;;;;;;;;;5096222;28;20497;-81
2022/12/02 12:05:17;;;;;;;23.95;12.55;;;;;;;;;;5096152;28;19919;-80
2022/12/02 12:07:46;;;;;;;23.73;11.88;;;;;;;;;;5095751;28;20240;-79
2022/12/02 12:10:23;;;;;;;25.95;13.68;;;;;;;;;;5095757;28;20032;-79
2022/12/02 12:13:29;;;;;;;30.48;16.88;;;;;;;;;;5095932;28;20035;-79
2022/12/02 12:16:03;;;;;;;37.40;19.30;;;;;;;;;;5014127;28;20045;-79
2022/12/02 12:18:34;;;;;;;32.88;16.42;;;;;;;;;;5013740;28;20045;-80
2022/12/02 12:21:01;;;;;;;28.27;15.68;;;;;;;;;;5059692;28;20044;-79
2022/12/02 12:23:30;;;;;;;26.23;13.93;;;;;;;;;;5095311;28;20436;-79
2022/12/02 12:25:58;;;;;;;26.13;15.25;;;;;;;;;;5095955;28;20123;-79
2022/12/02 12:28:27;;;;;;;28.38;17.65;;;;;;;;;;5094550;28;20051;-79
2022/12/02 12:30:55;;;;;;;26.77;15.65;;;;;;;;;;5095315;28;20044;-80
2022/12/02 12:33:22;;;;;;;29.35;16.17;;;;;;;;;;5096632;28;20435;-77
2022/12/02 12:35:53;;;;;;;28.83;17.08;;;;;;;;;;5094918;28;20051;-80
2022/12/02 12:38:23;;;;;;;30.45;16.83;;;;;;;;;;5094873;28;20115;-74
2022/12/02 12:40:57;;;;;;;36.60;18.30;;;;;;;;;;5094913;28;20040;-74
2022/12/02 12:43:25;;;;;;;31.77;16.70;;;;;;;;;;5094751;28;20060;-75
2022/12/02 12:45:52;;;;;;;37.67;21.25;;;;;;;;;;5094838;28;20050;-78
2022/12/02 12:48:20;;;;;;;38.35;22.48;;;;;;;;;;5094061;28;20050;-80
2022/12/02 12:50:47;;;;;;;41.67;21.88;;;;;;;;;;5093036;28;20044;-72
2022/12/02 12:53:15;;;;;;;28.33;16.83;;;;;;;;;;5094720;28;20036;-71
2022/12/02 12:55:42;;;;;;;30.05;14.10;;;;;;;;;;5094316;28;20043;-71
2022/12/02 12:58:10;;;;;;;28.58;15.32;;;;;;;;;;5094264;28;20036;-71
2022/12/02 13:00:37;;;;;;;32.08;18.05;;;;;;;;;;5094085;28;20519;-71
2022/12/02 13:03:05;;;;;;;35.95;17.30;;;;;;;;;;5093786;28;20036;-71
2022/12/02 13:05:32;;;;;;;27.83;15.57;;;;;;;;;;5094630;28;20493;-71
2022/12/02 13:08:00;;;;;;;31.75;19.70;;;;;;;;;;5094574;28;20043;-72
2022/12/02 13:10:27;;;;;;;38.83;21.60;;;;;;;;;;5094563;28;20515;-71
2022/12/02 13:12:54;;;;;;;34.42;18.80;;;;;;;;;;5094210;28;20139;-73
2022/12/02 13:15:22;;;;;;;29.52;16.08;;;;;;;;;;5094197;28;20097;-72
2022/12/02 13:17:49;;;;;;;29.88;15.02;;;;;;;;;;5094090;28;20123;-72
2022/12/02 13:20:17;;;;;;;29.65;15.95;;;;;;;;;;5094054;28;20075;-71
2022/12/02 13:22:45;;;;;;;26.25;14.73;;;;;;;;;;5094059;28;20050;-71
2022/12/02 13:25:13;;;;;;;30.60;16.58;;;;;;;;;;5094112;28;20048;-71
2022/12/02 13:27:41;;;;;;;31.83;16.17;;;;;;;;;;5094104;28;20035;-71
2022/12/02 13:30:11;;;;;;;29.90;15.80;;;;;;;;;;5094109;28;20068;-71
2022/12/02 13:32:38;;;;;;;28.98;14.68;;;;;;;;;;5093997;28;20048;-71
2022/12/02 13:35:06;;;;;;;27.98;14.07;;;;;;;;;;5093817;28;20101;-71
2022/12/02 13:37:33;;;;;;;38.95;19.85;;;;;;;;;;5093861;28;20043;-71
2022/12/02 13:40:02;;;;;;;55.78;26.45;;;;;;;;;;5093918;28;20343;-71
2022/12/02 13:42:29;;;;;;;34.35;16.98;;;;;;;;;;5092485;28;20050;-71
2022/12/02 13:44:57;;;;;;;30.70;14.88;;;;;;;;;;5092985;28;20040;-71
2022/12/02 13:47:24;;;;;;;25.83;13.73;;;;;;;;;;5093573;28;20056;-73
2022/12/02 13:49:52;;;;;;;29.55;14.77;;;;;;;;;;5093476;28;20105;-72
2022/12/02 13:52:20;;;;;;;27.02;15.48;;;;;;;;;;5093514;28;20093;-72
2022/12/02 13:54:48;;;;;;;30.05;15.52;;;;;;;;;;5093666;28;20493;-72
2022/12/02 13:57:16;;;;;;;31.95;15.18;;;;;;;;;;5093546;28;20044;-72
2022/12/02 13:59:44;;;;;;;29.73;13.25;;;;;;;;;;5093423;28;20052;-72
2022/12/02 14:02:12;;;;;;;26.60;13.90;;;;;;;;;;5093294;28;20048;-71
2022/12/02 14:04:39;;;;;;;26.95;14.07;;;;;;;;;;5093518;28;20040;-72
2022/12/02 14:07:07;;;;;;;28.25;14.65;;;;;;;;;;5092258;28;20040;-72
2022/12/02 14:09:34;;;;;;;29.30;15.60;;;;;;;;;;5092190;28;20032;-72
2022/12/02 14:12:02;;;;;;;30.52;14.73;;;;;;;;;;5093329;28;20043;-72
2022/12/02 14:14:29;;;;;;;27.60;15.50;;;;;;;;;;5093664;28;20039;-72
2022/12/02 14:16:57;;;;;;;30.75;15.95;;;;;;;;;;5093312;28;20040;-72
2022/12/02 14:19:24;;;;;;;30.02;15.38;;;;;;;;;;5093453;28;20139;-72
2022/12/02 14:21:52;;;;;;;31.90;15.65;;;;;;;;;;5093088;28;20050;-72
2022/12/02 14:24:19;;;;;;;32.80;16.50;;;;;;;;;;5092999;28;20044;-72
2022/12/02 14:26:46;;;;;;;36.47;17.15;;;;;;;;;;5093137;28;20043;-72
2022/12/02 14:29:14;;;;;;;32.80;17.33;;;;;;;;;;5092009;28;20040;-72
2022/12/02 14:31:41;;;;;;;37.30;17.02;;;;;;;;;;5091755;28;20051;-72
2022/12/02 14:34:09;;;;;;;29.90;16.75;;;;;;;;;;5091775;28;20378;-72
2022/12/02 14:36:40;;;;;;;31.42;16.85;;;;;;;;;;5093074;28;20036;-72
2022/12/02 14:39:07;;;;;;;37.80;18.63;;;;;;;;;;5092915;28;20047;-72